sensor_id;sensor_type;location;lat;lon;timestamp;P1;durP1;ratioP1;P2;durP2;ratioP2
48897;SDS011;34713;50.038;20.000;2022-07-30T00:00:04;6.92;;;3.83;;
48897;SDS011;34713;50.038;20.000;2022-07-30T00:02:35;7.85;;;4.53;;
48897;SDS011;34713;50.038;20.000;2022-07-30T00:05:01;6.97;;;4.40;;
48897;SDS011;34713;50.038;20.000;2022-07-30T00:07:28;5.42;;;4.03;;
48897;SDS011;34713;50.038;20.000;2022-07-30T00:09:54;8.18;;;4.40;;
48897;SDS011;34713;50.038;20.000;2022-07-30T00:12:20;6.17;;;4.65;;
48897;SDS011;34713;50.038;20.000;2022-07-30T00:14:46;7.28;;;4.87;;
48897;SDS011;34713;50.038;20.000;2022-07-30T00:17:11;7.65;;;4.90;;
48897;SDS011;34713;50.038;20.000;2022-07-30T00:19:37;8.78;;;4.70;;
48897;SDS011;34713;50.038;20.000;2022-07-30T00:22:03;5.45;;;4.12;;
48897;SDS011;34713;50.038;20.000;2022-07-30T00:24:28;5.72;;;4.35;;
48897;SDS011;34713;50.038;20.000;2022-07-30T00:26:54;9.68;;;4.50;;
48897;SDS011;34713;50.038;20.000;2022-07-30T00:29:20;6.72;;;3.75;;
48897;SDS011;34713;50.038;20.000;2022-07-30T00:31:46;6.67;;;4.00;;
48897;SDS011;34713;50.038;20.000;2022-07-30T00:34:12;6.97;;;4.50;;
48897;SDS011;34713;50.038;20.000;2022-07-30T00:36:38;6.95;;;3.92;;
48897;SDS011;34713;50.038;20.000;2022-07-30T00:39:04;8.70;;;4.28;;
48897;SDS011;34713;50.038;20.000;2022-07-30T00:41:30;7.50;;;5.15;;
48897;SDS011;34713;50.038;20.000;2022-07-30T00:43:56;6.03;;;5.47;;
48897;SDS011;34713;50.038;20.000;2022-07-30T00:46:21;8.83;;;6.22;;
48897;SDS011;34713;50.038;20.000;2022-07-30T00:48:47;8.15;;;6.50;;
48897;SDS011;34713;50.038;20.000;2022-07-30T00:51:13;7.67;;;6.97;;
48897;SDS011;34713;50.038;20.000;2022-07-30T00:53:39;9.70;;;6.80;;
48897;SDS011;34713;50.038;20.000;2022-07-30T00:56:06;6.97;;;6.10;;
48897;SDS011;34713;50.038;20.000;2022-07-30T00:58:34;7.83;;;5.58;;
48897;SDS011;34713;50.038;20.000;2022-07-30T01:01:00;7.03;;;6.17;;
48897;SDS011;34713;50.038;20.000;2022-07-30T01:03:25;6.90;;;6.15;;
48897;SDS011;34713;50.038;20.000;2022-07-30T01:05:51;12.55;;;6.05;;
48897;SDS011;34713;50.038;20.000;2022-07-30T01:08:17;6.42;;;5.30;;
48897;SDS011;34713;50.038;20.000;2022-07-30T01:10:43;7.78;;;5.75;;
48897;SDS011;34713;50.038;20.000;2022-07-30T01:13:09;8.33;;;5.42;;
48897;SDS011;34713;50.038;20.000;2022-07-30T01:15:35;6.95;;;4.87;;
48897;SDS011;34713;50.038;20.000;2022-07-30T01:18:03;6.67;;;5.62;;
48897;SDS011;34713;50.038;20.000;2022-07-30T01:20:37;9.43;;;6.37;;
48897;SDS011;34713;50.038;20.000;2022-07-30T01:23:07;9.10;;;6.60;;
48897;SDS011;34713;50.038;20.000;2022-07-30T01:26:00;7.00;;;5.67;;
48897;SDS011;34713;50.038;20.000;2022-07-30T01:28:32;10.23;;;6.08;;
48897;SDS011;34713;50.038;20.000;2022-07-30T01:31:03;9.18;;;5.70;;
48897;SDS011;34713;50.038;20.000;2022-07-30T01:33:31;6.75;;;6.05;;
48897;SDS011;34713;50.038;20.000;2022-07-30T01:36:01;14.60;;;6.60;;
48897;SDS011;34713;50.038;20.000;2022-07-30T01:38:29;6.92;;;6.20;;
48897;SDS011;34713;50.038;20.000;2022-07-30T01:40:56;11.25;;;7.15;;
48897;SDS011;34713;50.038;20.000;2022-07-30T01:43:23;10.85;;;6.90;;
48897;SDS011;34713;50.038;20.000;2022-07-30T01:45:50;10.38;;;6.55;;
48897;SDS011;34713;50.038;20.000;2022-07-30T01:48:19;7.37;;;6.33;;
48897;SDS011;34713;50.038;20.000;2022-07-30T01:50:48;7.67;;;6.00;;
48897;SDS011;34713;50.038;20.000;2022-07-30T01:53:20;8.53;;;6.12;;
48897;SDS011;34713;50.038;20.000;2022-07-30T01:55:49;8.03;;;5.97;;
48897;SDS011;34713;50.038;20.000;2022-07-30T01:58:17;9.08;;;6.25;;
48897;SDS011;34713;50.038;20.000;2022-07-30T02:00:45;7.80;;;5.97;;
48897;SDS011;34713;50.038;20.000;2022-07-30T02:03:13;8.83;;;6.28;;
48897;SDS011;34713;50.038;20.000;2022-07-30T02:05:39;9.85;;;6.42;;
48897;SDS011;34713;50.038;20.000;2022-07-30T02:08:10;8.30;;;6.17;;
48897;SDS011;34713;50.038;20.000;2022-07-30T02:11:07;9.08;;;6.12;;
48897;SDS011;34713;50.038;20.000;2022-07-30T02:13:42;9.30;;;6.05;;
48897;SDS011;34713;50.038;20.000;2022-07-30T02:16:15;9.05;;;6.15;;
48897;SDS011;34713;50.038;20.000;2022-07-30T02:18:50;11.35;;;5.95;;
48897;SDS011;34713;50.038;20.000;2022-07-30T02:21:20;11.73;;;6.22;;
48897;SDS011;34713;50.038;20.000;2022-07-30T02:23:49;8.13;;;5.75;;
48897;SDS011;34713;50.038;20.000;2022-07-30T02:26:20;13.65;;;6.40;;
48897;SDS011;34713;50.038;20.000;2022-07-30T02:28:49;8.25;;;5.72;;
48897;SDS011;34713;50.038;20.000;2022-07-30T02:31:19;8.60;;;6.00;;
48897;SDS011;34713;50.038;20.000;2022-07-30T02:33:49;10.78;;;6.85;;
48897;SDS011;34713;50.038;20.000;2022-07-30T02:36:19;9.28;;;6.12;;
48897;SDS011;34713;50.038;20.000;2022-07-30T02:38:47;7.97;;;5.83;;
48897;SDS011;34713;50.038;20.000;2022-07-30T02:41:15;10.60;;;6.40;;
48897;SDS011;34713;50.038;20.000;2022-07-30T02:43:44;7.17;;;5.53;;
48897;SDS011;34713;50.038;20.000;2022-07-30T02:46:14;6.70;;;5.12;;
48897;SDS011;34713;50.038;20.000;2022-07-30T02:48:42;6.80;;;5.12;;
48897;SDS011;34713;50.038;20.000;2022-07-30T02:51:09;6.22;;;4.90;;
48897;SDS011;34713;50.038;20.000;2022-07-30T02:53:36;8.43;;;5.45;;
48897;SDS011;34713;50.038;20.000;2022-07-30T02:56:04;10.95;;;5.47;;
48897;SDS011;34713;50.038;20.000;2022-07-30T02:58:32;7.28;;;5.37;;
48897;SDS011;34713;50.038;20.000;2022-07-30T03:01:02;7.80;;;5.05;;
48897;SDS011;34713;50.038;20.000;2022-07-30T03:03:28;8.28;;;5.45;;
48897;SDS011;34713;50.038;20.000;2022-07-30T03:05:55;6.60;;;5.37;;
48897;SDS011;34713;50.038;20.000;2022-07-30T03:08:22;6.85;;;6.08;;
48897;SDS011;34713;50.038;20.000;2022-07-30T03:10:49;6.50;;;5.90;;
48897;SDS011;34713;50.038;20.000;2022-07-30T03:13:17;11.33;;;6.58;;
48897;SDS011;34713;50.038;20.000;2022-07-30T03:15:46;10.78;;;7.45;;
48897;SDS011;34713;50.038;20.000;2022-07-30T03:18:14;8.28;;;6.58;;
48897;SDS011;34713;50.038;20.000;2022-07-30T03:20:47;10.40;;;7.03;;
48897;SDS011;34713;50.038;20.000;2022-07-30T03:23:16;10.43;;;7.20;;
48897;SDS011;34713;50.038;20.000;2022-07-30T03:25:47;9.78;;;8.13;;
48897;SDS011;34713;50.038;20.000;2022-07-30T03:28:16;10.53;;;8.83;;
48897;SDS011;34713;50.038;20.000;2022-07-30T03:30:44;12.15;;;9.40;;
48897;SDS011;34713;50.038;20.000;2022-07-30T03:33:10;10.35;;;9.33;;
48897;SDS011;34713;50.038;20.000;2022-07-30T03:35:37;14.18;;;9.30;;
48897;SDS011;34713;50.038;20.000;2022-07-30T03:38:05;11.70;;;9.05;;
48897;SDS011;34713;50.038;20.000;2022-07-30T03:40:32;12.53;;;9.15;;
48897;SDS011;34713;50.038;20.000;2022-07-30T03:42:58;12.80;;;9.53;;
48897;SDS011;34713;50.038;20.000;2022-07-30T03:45:25;12.55;;;8.90;;
48897;SDS011;34713;50.038;20.000;2022-07-30T03:47:51;10.40;;;9.20;;
48897;SDS011;34713;50.038;20.000;2022-07-30T03:50:18;11.65;;;9.98;;
48897;SDS011;34713;50.038;20.000;2022-07-30T03:52:43;11.48;;;10.00;;
48897;SDS011;34713;50.038;20.000;2022-07-30T03:55:10;12.37;;;11.08;;
48897;SDS011;34713;50.038;20.000;2022-07-30T03:57:36;12.55;;;10.78;;
48897;SDS011;34713;50.038;20.000;2022-07-30T04:00:04;12.55;;;11.20;;
48897;SDS011;34713;50.038;20.000;2022-07-30T04:02:39;14.23;;;10.55;;
48897;SDS011;34713;50.038;20.000;2022-07-30T04:05:07;11.90;;;10.70;;
48897;SDS011;34713;50.038;20.000;2022-07-30T04:07:33;13.30;;;11.93;;
48897;SDS011;34713;50.038;20.000;2022-07-30T04:09:59;14.63;;;13.08;;
48897;SDS011;34713;50.038;20.000;2022-07-30T04:12:25;14.73;;;12.73;;
48897;SDS011;34713;50.038;20.000;2022-07-30T04:14:51;16.32;;;13.90;;
48897;SDS011;34713;50.038;20.000;2022-07-30T04:17:21;18.42;;;14.98;;
48897;SDS011;34713;50.038;20.000;2022-07-30T04:20:15;18.73;;;16.73;;
48897;SDS011;34713;50.038;20.000;2022-07-30T04:22:57;20.15;;;16.57;;
48897;SDS011;34713;50.038;20.000;2022-07-30T04:25:24;22.07;;;19.87;;
48897;SDS011;34713;50.038;20.000;2022-07-30T04:27:50;23.02;;;18.30;;
48897;SDS011;34713;50.038;20.000;2022-07-30T04:30:16;20.57;;;18.10;;
48897;SDS011;34713;50.038;20.000;2022-07-30T04:32:42;25.02;;;22.17;;
48897;SDS011;34713;50.038;20.000;2022-07-30T04:35:08;26.60;;;21.93;;
48897;SDS011;34713;50.038;20.000;2022-07-30T04:37:34;25.45;;;20.60;;
48897;SDS011;34713;50.038;20.000;2022-07-30T04:40:00;22.20;;;19.50;;
48897;SDS011;34713;50.038;20.000;2022-07-30T04:42:27;22.50;;;18.32;;
48897;SDS011;34713;50.038;20.000;2022-07-30T04:44:53;21.15;;;18.95;;
48897;SDS011;34713;50.038;20.000;2022-07-30T04:47:19;18.00;;;15.38;;
48897;SDS011;34713;50.038;20.000;2022-07-30T04:49:46;17.77;;;15.25;;
48897;SDS011;34713;50.038;20.000;2022-07-30T04:52:13;18.65;;;15.25;;
48897;SDS011;34713;50.038;20.000;2022-07-30T04:54:43;17.27;;;15.48;;
48897;SDS011;34713;50.038;20.000;2022-07-30T04:57:14;17.23;;;15.00;;
48897;SDS011;34713;50.038;20.000;2022-07-30T04:59:42;18.37;;;14.55;;
48897;SDS011;34713;50.038;20.000;2022-07-30T05:02:09;22.85;;;17.00;;
48897;SDS011;34713;50.038;20.000;2022-07-30T05:04:36;21.85;;;15.43;;
48897;SDS011;34713;50.038;20.000;2022-07-30T05:07:04;20.72;;;15.15;;
48897;SDS011;34713;50.038;20.000;2022-07-30T05:09:32;18.17;;;15.95;;
48897;SDS011;34713;50.038;20.000;2022-07-30T05:11:59;16.17;;;14.40;;
48897;SDS011;34713;50.038;20.000;2022-07-30T05:14:25;17.77;;;14.25;;
48897;SDS011;34713;50.038;20.000;2022-07-30T05:16:52;18.12;;;14.55;;
48897;SDS011;34713;50.038;20.000;2022-07-30T05:19:19;18.12;;;14.68;;
48897;SDS011;34713;50.038;20.000;2022-07-30T05:21:46;15.05;;;13.30;;
48897;SDS011;34713;50.038;20.000;2022-07-30T05:24:12;17.45;;;13.93;;
48897;SDS011;34713;50.038;20.000;2022-07-30T05:26:38;16.17;;;13.68;;
48897;SDS011;34713;50.038;20.000;2022-07-30T05:29:04;15.65;;;14.05;;
48897;SDS011;34713;50.038;20.000;2022-07-30T05:31:30;17.95;;;15.00;;
48897;SDS011;34713;50.038;20.000;2022-07-30T05:33:55;16.50;;;13.15;;
48897;SDS011;34713;50.038;20.000;2022-07-30T05:36:21;14.35;;;12.82;;
48897;SDS011;34713;50.038;20.000;2022-07-30T05:38:47;13.80;;;12.18;;
48897;SDS011;34713;50.038;20.000;2022-07-30T05:41:13;13.18;;;11.83;;
48897;SDS011;34713;50.038;20.000;2022-07-30T05:43:40;12.98;;;11.55;;
48897;SDS011;34713;50.038;20.000;2022-07-30T05:46:06;13.15;;;11.30;;
48897;SDS011;34713;50.038;20.000;2022-07-30T05:48:32;11.83;;;10.60;;
48897;SDS011;34713;50.038;20.000;2022-07-30T05:51:00;11.50;;;10.35;;
48897;SDS011;34713;50.038;20.000;2022-07-30T05:53:26;14.73;;;11.80;;
48897;SDS011;34713;50.038;20.000;2022-07-30T05:55:53;13.10;;;11.15;;
48897;SDS011;34713;50.038;20.000;2022-07-30T05:58:18;13.80;;;10.82;;
48897;SDS011;34713;50.038;20.000;2022-07-30T06:00:44;11.95;;;10.70;;
48897;SDS011;34713;50.038;20.000;2022-07-30T06:03:10;16.35;;;10.98;;
48897;SDS011;34713;50.038;20.000;2022-07-30T06:05:36;14.00;;;11.88;;
48897;SDS011;34713;50.038;20.000;2022-07-30T06:08:03;11.83;;;10.63;;
48897;SDS011;34713;50.038;20.000;2022-07-30T06:10:28;12.20;;;10.75;;
48897;SDS011;34713;50.038;20.000;2022-07-30T06:12:55;15.70;;;10.50;;
48897;SDS011;34713;50.038;20.000;2022-07-30T06:15:21;11.38;;;10.28;;
48897;SDS011;34713;50.038;20.000;2022-07-30T06:17:47;12.55;;;10.88;;
48897;SDS011;34713;50.038;20.000;2022-07-30T06:20:13;11.80;;;9.45;;
48897;SDS011;34713;50.038;20.000;2022-07-30T06:22:41;11.93;;;10.63;;
48897;SDS011;34713;50.038;20.000;2022-07-30T06:25:07;11.12;;;9.53;;
48897;SDS011;34713;50.038;20.000;2022-07-30T06:27:34;12.37;;;9.45;;
48897;SDS011;34713;50.038;20.000;2022-07-30T06:30:01;9.58;;;8.73;;
48897;SDS011;34713;50.038;20.000;2022-07-30T06:32:34;11.73;;;9.70;;
48897;SDS011;34713;50.038;20.000;2022-07-30T06:35:00;10.75;;;9.60;;
48897;SDS011;34713;50.038;20.000;2022-07-30T06:37:27;12.15;;;10.88;;
48897;SDS011;34713;50.038;20.000;2022-07-30T06:39:53;13.83;;;11.12;;
48897;SDS011;34713;50.038;20.000;2022-07-30T06:42:19;12.78;;;10.25;;
48897;SDS011;34713;50.038;20.000;2022-07-30T06:44:45;14.10;;;9.48;;
48897;SDS011;34713;50.038;20.000;2022-07-30T06:47:11;11.00;;;8.75;;
48897;SDS011;34713;50.038;20.000;2022-07-30T06:49:37;9.20;;;7.58;;
48897;SDS011;34713;50.038;20.000;2022-07-30T06:52:03;8.95;;;7.37;;
48897;SDS011;34713;50.038;20.000;2022-07-30T06:54:30;8.65;;;7.75;;
48897;SDS011;34713;50.038;20.000;2022-07-30T06:56:55;9.80;;;8.80;;
48897;SDS011;34713;50.038;20.000;2022-07-30T06:59:22;18.35;;;9.15;;
48897;SDS011;34713;50.038;20.000;2022-07-30T07:01:48;10.78;;;8.40;;
48897;SDS011;34713;50.038;20.000;2022-07-30T07:04:14;8.95;;;8.05;;
48897;SDS011;34713;50.038;20.000;2022-07-30T07:06:40;13.43;;;9.23;;
48897;SDS011;34713;50.038;20.000;2022-07-30T07:09:06;10.30;;;8.73;;
48897;SDS011;34713;50.038;20.000;2022-07-30T07:11:32;10.48;;;8.58;;
48897;SDS011;34713;50.038;20.000;2022-07-30T07:13:59;12.45;;;8.50;;
48897;SDS011;34713;50.038;20.000;2022-07-30T07:16:25;9.83;;;8.23;;
48897;SDS011;34713;50.038;20.000;2022-07-30T07:18:51;9.58;;;8.43;;
48897;SDS011;34713;50.038;20.000;2022-07-30T07:21:19;15.80;;;8.75;;
48897;SDS011;34713;50.038;20.000;2022-07-30T07:23:45;10.03;;;8.98;;
48897;SDS011;34713;50.038;20.000;2022-07-30T07:26:14;13.30;;;9.20;;
48897;SDS011;34713;50.038;20.000;2022-07-30T07:28:40;10.38;;;8.68;;
48897;SDS011;34713;50.038;20.000;2022-07-30T07:31:07;11.48;;;8.60;;
48897;SDS011;34713;50.038;20.000;2022-07-30T07:33:34;10.95;;;8.05;;
48897;SDS011;34713;50.038;20.000;2022-07-30T07:36:01;9.28;;;8.35;;
48897;SDS011;34713;50.038;20.000;2022-07-30T07:38:27;9.35;;;8.40;;
48897;SDS011;34713;50.038;20.000;2022-07-30T07:40:53;9.45;;;8.55;;
48897;SDS011;34713;50.038;20.000;2022-07-30T07:43:18;11.38;;;8.70;;
48897;SDS011;34713;50.038;20.000;2022-07-30T07:45:44;11.15;;;8.63;;
48897;SDS011;34713;50.038;20.000;2022-07-30T07:48:10;10.30;;;8.33;;
48897;SDS011;34713;50.038;20.000;2022-07-30T07:50:36;9.93;;;7.75;;
48897;SDS011;34713;50.038;20.000;2022-07-30T07:53:03;9.98;;;8.78;;
48897;SDS011;34713;50.038;20.000;2022-07-30T07:55:30;9.10;;;7.37;;
48897;SDS011;34713;50.038;20.000;2022-07-30T07:57:56;11.10;;;9.20;;
48897;SDS011;34713;50.038;20.000;2022-07-30T08:00:22;9.90;;;8.43;;
48897;SDS011;34713;50.038;20.000;2022-07-30T08:02:48;12.25;;;8.15;;
48897;SDS011;34713;50.038;20.000;2022-07-30T08:05:14;13.55;;;7.85;;
48897;SDS011;34713;50.038;20.000;2022-07-30T08:07:41;11.78;;;7.97;;
48897;SDS011;34713;50.038;20.000;2022-07-30T08:10:08;9.78;;;8.13;;
48897;SDS011;34713;50.038;20.000;2022-07-30T08:12:37;8.80;;;7.75;;
48897;SDS011;34713;50.038;20.000;2022-07-30T08:15:04;10.93;;;7.72;;
48897;SDS011;34713;50.038;20.000;2022-07-30T08:17:30;9.10;;;7.25;;
48897;SDS011;34713;50.038;20.000;2022-07-30T08:19:57;11.30;;;7.25;;
48897;SDS011;34713;50.038;20.000;2022-07-30T08:22:24;9.10;;;8.20;;
48897;SDS011;34713;50.038;20.000;2022-07-30T08:24:51;9.35;;;7.62;;
48897;SDS011;34713;50.038;20.000;2022-07-30T08:27:17;9.83;;;7.30;;
48897;SDS011;34713;50.038;20.000;2022-07-30T08:29:43;8.33;;;7.10;;
48897;SDS011;34713;50.038;20.000;2022-07-30T08:32:09;7.72;;;6.80;;
48897;SDS011;34713;50.038;20.000;2022-07-30T08:34:34;11.10;;;7.22;;
48897;SDS011;34713;50.038;20.000;2022-07-30T08:37:00;9.05;;;6.30;;
48897;SDS011;34713;50.038;20.000;2022-07-30T08:39:26;9.05;;;7.20;;
48897;SDS011;34713;50.038;20.000;2022-07-30T08:41:52;7.85;;;7.05;;
48897;SDS011;34713;50.038;20.000;2022-07-30T08:44:18;9.73;;;7.45;;
48897;SDS011;34713;50.038;20.000;2022-07-30T08:46:46;7.40;;;6.60;;
48897;SDS011;34713;50.038;20.000;2022-07-30T08:49:13;14.93;;;7.65;;
48897;SDS011;34713;50.038;20.000;2022-07-30T08:51:40;7.55;;;6.75;;
48897;SDS011;34713;50.038;20.000;2022-07-30T08:54:06;10.20;;;6.12;;
48897;SDS011;34713;50.038;20.000;2022-07-30T08:56:32;8.98;;;6.20;;
48897;SDS011;34713;50.038;20.000;2022-07-30T08:58:59;8.33;;;5.50;;
48897;SDS011;34713;50.038;20.000;2022-07-30T09:01:25;6.33;;;5.72;;
48897;SDS011;34713;50.038;20.000;2022-07-30T09:03:52;7.30;;;5.67;;
48897;SDS011;34713;50.038;20.000;2022-07-30T09:06:17;7.20;;;6.37;;
48897;SDS011;34713;50.038;20.000;2022-07-30T09:08:43;5.78;;;5.22;;
48897;SDS011;34713;50.038;20.000;2022-07-30T09:11:10;6.50;;;5.90;;
48897;SDS011;34713;50.038;20.000;2022-07-30T09:13:36;6.53;;;5.83;;
48897;SDS011;34713;50.038;20.000;2022-07-30T09:16:05;9.73;;;6.03;;
48897;SDS011;34713;50.038;20.000;2022-07-30T09:18:38;7.97;;;5.80;;
48897;SDS011;34713;50.038;20.000;2022-07-30T09:21:21;7.05;;;5.90;;
48897;SDS011;34713;50.038;20.000;2022-07-30T09:26:27;7.60;;;6.65;;
48897;SDS011;34713;50.038;20.000;2022-07-30T09:28:53;11.83;;;7.10;;
48897;SDS011;34713;50.038;20.000;2022-07-30T09:31:20;8.90;;;7.22;;
48897;SDS011;34713;50.038;20.000;2022-07-30T09:33:46;8.15;;;6.28;;
48897;SDS011;34713;50.038;20.000;2022-07-30T09:36:14;6.45;;;5.85;;
48897;SDS011;34713;50.038;20.000;2022-07-30T09:41:16;8.58;;;6.47;;
48897;SDS011;34713;50.038;20.000;2022-07-30T09:43:47;8.03;;;5.97;;
48897;SDS011;34713;50.038;20.000;2022-07-30T09:46:14;7.20;;;5.50;;
48897;SDS011;34713;50.038;20.000;2022-07-30T09:48:41;6.20;;;5.58;;
48897;SDS011;34713;50.038;20.000;2022-07-30T09:51:09;9.28;;;5.53;;
48897;SDS011;34713;50.038;20.000;2022-07-30T09:53:35;7.10;;;6.35;;
48897;SDS011;34713;50.038;20.000;2022-07-30T09:56:21;8.15;;;5.87;;
48897;SDS011;34713;50.038;20.000;2022-07-30T09:58:48;10.05;;;6.55;;
48897;SDS011;34713;50.038;20.000;2022-07-30T10:01:14;7.20;;;5.75;;
48897;SDS011;34713;50.038;20.000;2022-07-30T10:03:40;9.18;;;6.05;;
48897;SDS011;34713;50.038;20.000;2022-07-30T10:06:07;7.08;;;5.50;;
48897;SDS011;34713;50.038;20.000;2022-07-30T10:08:47;9.70;;;6.22;;
48897;SDS011;34713;50.038;20.000;2022-07-30T10:11:16;8.23;;;6.10;;
48897;SDS011;34713;50.038;20.000;2022-07-30T10:13:52;7.10;;;5.62;;
48897;SDS011;34713;50.038;20.000;2022-07-30T10:16:21;6.53;;;5.42;;
48897;SDS011;34713;50.038;20.000;2022-07-30T10:18:52;6.72;;;5.67;;
48897;SDS011;34713;50.038;20.000;2022-07-30T10:21:21;5.90;;;5.05;;
48897;SDS011;34713;50.038;20.000;2022-07-30T10:23:47;5.65;;;5.05;;
48897;SDS011;34713;50.038;20.000;2022-07-30T10:26:13;10.40;;;5.87;;
48897;SDS011;34713;50.038;20.000;2022-07-30T10:28:39;7.50;;;5.67;;
48897;SDS011;34713;50.038;20.000;2022-07-30T10:31:07;9.85;;;5.70;;
48897;SDS011;34713;50.038;20.000;2022-07-30T10:33:33;9.80;;;5.78;;
48897;SDS011;34713;50.038;20.000;2022-07-30T10:36:01;8.55;;;5.97;;
48897;SDS011;34713;50.038;20.000;2022-07-30T10:38:28;9.30;;;6.33;;
48897;SDS011;34713;50.038;20.000;2022-07-30T10:41:04;12.75;;;6.87;;
48897;SDS011;34713;50.038;20.000;2022-07-30T10:43:50;8.85;;;6.17;;
48897;SDS011;34713;50.038;20.000;2022-07-30T10:49:31;6.42;;;5.20;;
48897;SDS011;34713;50.038;20.000;2022-07-30T10:51:58;6.22;;;4.90;;
48897;SDS011;34713;50.038;20.000;2022-07-30T11:02:27;6.83;;;4.78;;
48897;SDS011;34713;50.038;20.000;2022-07-30T11:07:46;6.37;;;4.95;;
48897;SDS011;34713;50.038;20.000;2022-07-30T11:10:34;5.85;;;4.47;;
48897;SDS011;34713;50.038;20.000;2022-07-30T11:13:07;6.15;;;4.33;;
48897;SDS011;34713;50.038;20.000;2022-07-30T11:18:23;4.92;;;4.42;;
48897;SDS011;34713;50.038;20.000;2022-07-30T11:23:44;4.75;;;3.87;;
48897;SDS011;34713;50.038;20.000;2022-07-30T11:26:45;4.78;;;4.08;;
48897;SDS011;34713;50.038;20.000;2022-07-30T11:28:58;4.62;;;3.70;;
48897;SDS011;34713;50.038;20.000;2022-07-30T11:31:34;5.15;;;4.65;;
48897;SDS011;34713;50.038;20.000;2022-07-30T11:37:06;4.70;;;3.87;;
48897;SDS011;34713;50.038;20.000;2022-07-30T11:47:47;5.15;;;4.03;;
48897;SDS011;34713;50.038;20.000;2022-07-30T11:50:22;5.20;;;3.98;;
48897;SDS011;34713;50.038;20.000;2022-07-30T11:53:09;5.33;;;4.05;;
48897;SDS011;34713;50.038;20.000;2022-07-30T11:55:36;5.12;;;4.37;;
48897;SDS011;34713;50.038;20.000;2022-07-30T11:58:06;4.95;;;4.40;;
48897;SDS011;34713;50.038;20.000;2022-07-30T12:03:10;4.37;;;3.98;;
48897;SDS011;34713;50.038;20.000;2022-07-30T12:05:39;4.17;;;3.72;;
48897;SDS011;34713;50.038;20.000;2022-07-30T12:08:06;8.05;;;5.50;;
48897;SDS011;34713;50.038;20.000;2022-07-30T12:10:32;8.08;;;5.25;;
48897;SDS011;34713;50.038;20.000;2022-07-30T12:13:11;6.72;;;5.00;;
48897;SDS011;34713;50.038;20.000;2022-07-30T12:15:40;5.78;;;4.65;;
48897;SDS011;34713;50.038;20.000;2022-07-30T12:18:11;7.10;;;4.83;;
48897;SDS011;34713;50.038;20.000;2022-07-30T12:20:38;5.67;;;4.60;;
48897;SDS011;34713;50.038;20.000;2022-07-30T12:23:09;5.55;;;4.20;;
48897;SDS011;34713;50.038;20.000;2022-07-30T12:25:39;5.70;;;3.47;;
48897;SDS011;34713;50.038;20.000;2022-07-30T12:28:07;5.10;;;3.40;;
48897;SDS011;34713;50.038;20.000;2022-07-30T12:30:38;5.35;;;3.22;;
48897;SDS011;34713;50.038;20.000;2022-07-30T12:33:09;4.08;;;3.60;;
48897;SDS011;34713;50.038;20.000;2022-07-30T12:38:14;8.00;;;3.40;;
48897;SDS011;34713;50.038;20.000;2022-07-30T12:46:26;5.00;;;3.50;;
48897;SDS011;34713;50.038;20.000;2022-07-30T12:51:28;4.83;;;3.17;;
48897;SDS011;34713;50.038;20.000;2022-07-30T12:54:00;7.00;;;3.22;;
48897;SDS011;34713;50.038;20.000;2022-07-30T12:56:28;3.50;;;2.85;;
48897;SDS011;34713;50.038;20.000;2022-07-30T12:58:55;3.12;;;2.83;;
48897;SDS011;34713;50.038;20.000;2022-07-30T13:04:08;9.28;;;3.60;;
48897;SDS011;34713;50.038;20.000;2022-07-30T13:06:36;4.08;;;2.92;;
48897;SDS011;34713;50.038;20.000;2022-07-30T13:09:02;3.00;;;2.52;;
48897;SDS011;34713;50.038;20.000;2022-07-30T13:11:39;6.12;;;3.40;;
48897;SDS011;34713;50.038;20.000;2022-07-30T13:14:08;2.95;;;2.75;;
48897;SDS011;34713;50.038;20.000;2022-07-30T13:16:36;5.12;;;3.42;;
48897;SDS011;34713;50.038;20.000;2022-07-30T13:19:04;3.10;;;2.80;;
48897;SDS011;34713;50.038;20.000;2022-07-30T13:21:31;3.83;;;3.00;;
48897;SDS011;34713;50.038;20.000;2022-07-30T13:23:58;4.33;;;2.90;;
48897;SDS011;34713;50.038;20.000;2022-07-30T13:26:25;4.92;;;3.17;;
48897;SDS011;34713;50.038;20.000;2022-07-30T13:28:53;6.12;;;3.02;;
48897;SDS011;34713;50.038;20.000;2022-07-30T13:31:21;4.97;;;3.10;;
48897;SDS011;34713;50.038;20.000;2022-07-30T13:33:47;4.03;;;3.20;;
48897;SDS011;34713;50.038;20.000;2022-07-30T13:36:14;4.83;;;3.17;;
48897;SDS011;34713;50.038;20.000;2022-07-30T13:38:40;4.35;;;3.52;;
48897;SDS011;34713;50.038;20.000;2022-07-30T13:41:06;4.70;;;3.65;;
48897;SDS011;34713;50.038;20.000;2022-07-30T13:43:33;3.90;;;3.30;;
48897;SDS011;34713;50.038;20.000;2022-07-30T13:46:00;3.67;;;3.10;;
48897;SDS011;34713;50.038;20.000;2022-07-30T13:48:29;4.08;;;2.77;;
48897;SDS011;34713;50.038;20.000;2022-07-30T13:50:56;5.12;;;2.47;;
48897;SDS011;34713;50.038;20.000;2022-07-30T13:53:24;4.78;;;2.87;;
48897;SDS011;34713;50.038;20.000;2022-07-30T13:55:51;2.98;;;2.42;;
48897;SDS011;34713;50.038;20.000;2022-07-30T13:58:16;3.55;;;2.50;;
48897;SDS011;34713;50.038;20.000;2022-07-30T14:00:42;3.67;;;2.70;;
48897;SDS011;34713;50.038;20.000;2022-07-30T14:03:09;5.03;;;2.80;;
48897;SDS011;34713;50.038;20.000;2022-07-30T14:05:35;2.80;;;2.50;;
48897;SDS011;34713;50.038;20.000;2022-07-30T14:08:03;2.37;;;2.17;;
48897;SDS011;34713;50.038;20.000;2022-07-30T14:10:32;3.87;;;2.58;;
48897;SDS011;34713;50.038;20.000;2022-07-30T14:12:59;3.08;;;2.58;;
48897;SDS011;34713;50.038;20.000;2022-07-30T14:15:26;3.00;;;2.50;;
48897;SDS011;34713;50.038;20.000;2022-07-30T14:17:57;5.85;;;2.60;;
48897;SDS011;34713;50.038;20.000;2022-07-30T14:20:24;3.65;;;2.65;;
48897;SDS011;34713;50.038;20.000;2022-07-30T14:22:51;3.47;;;2.75;;
48897;SDS011;34713;50.038;20.000;2022-07-30T14:25:16;2.75;;;2.47;;
48897;SDS011;34713;50.038;20.000;2022-07-30T14:27:43;2.67;;;2.47;;
48897;SDS011;34713;50.038;20.000;2022-07-30T14:30:09;4.87;;;2.90;;
48897;SDS011;34713;50.038;20.000;2022-07-30T14:32:36;4.15;;;3.05;;
48897;SDS011;34713;50.038;20.000;2022-07-30T14:35:04;4.35;;;2.60;;
48897;SDS011;34713;50.038;20.000;2022-07-30T14:37:37;2.92;;;2.55;;
48897;SDS011;34713;50.038;20.000;2022-07-30T14:40:03;5.00;;;2.80;;
48897;SDS011;34713;50.038;20.000;2022-07-30T14:42:30;2.98;;;2.65;;
48897;SDS011;34713;50.038;20.000;2022-07-30T14:44:56;3.85;;;2.40;;
48897;SDS011;34713;50.038;20.000;2022-07-30T14:47:22;3.72;;;2.50;;
48897;SDS011;34713;50.038;20.000;2022-07-30T14:49:48;3.25;;;2.65;;
48897;SDS011;34713;50.038;20.000;2022-07-30T14:52:14;4.25;;;2.77;;
48897;SDS011;34713;50.038;20.000;2022-07-30T14:54:41;3.30;;;2.70;;
48897;SDS011;34713;50.038;20.000;2022-07-30T14:57:07;3.35;;;2.85;;
48897;SDS011;34713;50.038;20.000;2022-07-30T14:59:34;4.50;;;3.08;;
48897;SDS011;34713;50.038;20.000;2022-07-30T15:02:00;3.85;;;2.72;;
48897;SDS011;34713;50.038;20.000;2022-07-30T15:04:26;3.58;;;3.05;;
48897;SDS011;34713;50.038;20.000;2022-07-30T15:06:51;3.33;;;2.92;;
48897;SDS011;34713;50.038;20.000;2022-07-30T15:09:17;5.65;;;3.45;;
48897;SDS011;34713;50.038;20.000;2022-07-30T15:11:44;3.95;;;3.47;;
48897;SDS011;34713;50.038;20.000;2022-07-30T15:14:10;4.55;;;3.52;;
48897;SDS011;34713;50.038;20.000;2022-07-30T15:16:36;4.30;;;3.80;;
48897;SDS011;34713;50.038;20.000;2022-07-30T15:19:03;5.50;;;4.17;;
48897;SDS011;34713;50.038;20.000;2022-07-30T15:21:28;5.20;;;4.15;;
48897;SDS011;34713;50.038;20.000;2022-07-30T15:23:54;5.12;;;4.28;;